createdAt,value
2022-10-18T00:00:14.248Z,15.71
2022-10-18T00:02:40.724Z,15.67
2022-10-18T00:05:07.686Z,15.71
2022-10-18T00:07:34.217Z,15.70
2022-10-18T00:10:00.677Z,15.77
2022-10-18T00:12:27.483Z,15.81
2022-10-18T00:14:53.952Z,15.87
2022-10-18T00:17:20.471Z,15.89
2022-10-18T00:19:48.104Z,15.87
2022-10-18T00:22:14.549Z,15.77
2022-10-18T00:24:40.983Z,15.80
2022-10-18T00:27:07.507Z,15.89
2022-10-18T00:29:34.461Z,15.86
2022-10-18T00:32:00.918Z,15.81
2022-10-18T00:34:27.432Z,15.79
2022-10-18T00:36:54.987Z,15.85
2022-10-18T00:39:22.516Z,15.72
2022-10-18T00:41:50.589Z,15.63
2022-10-18T00:44:16.966Z,15.62
2022-10-18T00:46:47.678Z,15.66
2022-10-18T00:49:25.029Z,15.65
2022-10-18T00:51:56.899Z,15.74
2022-10-18T00:54:24.847Z,15.82
2022-10-18T00:56:51.512Z,15.89
2022-10-18T00:59:19.888Z,15.81
2022-10-18T01:01:46.883Z,15.78
2022-10-18T01:04:19.306Z,15.70
2022-10-18T01:07:26.585Z,15.57
2022-10-18T01:10:30.342Z,15.46
2022-10-18T01:13:49.595Z,15.53
2022-10-18T01:16:44.598Z,15.59
2022-10-18T01:20:04.875Z,15.64
2022-10-18T01:22:50.511Z,15.52
2022-10-18T01:25:38.033Z,15.46
2022-10-18T01:28:38.805Z,15.44
2022-10-18T01:31:20.441Z,15.50
2022-10-18T01:33:56.048Z,15.50
2022-10-18T01:36:43.933Z,15.52
2022-10-18T01:39:17.210Z,15.60
2022-10-18T01:41:46.583Z,15.65
2022-10-18T01:44:21.115Z,15.61
2022-10-18T01:46:49.486Z,15.54
2022-10-18T01:49:15.918Z,15.52
2022-10-18T01:51:42.346Z,15.55
2022-10-18T01:54:12.875Z,15.51
2022-10-18T01:57:15.542Z,15.50
2022-10-18T02:00:00.247Z,15.44
2022-10-18T02:02:54.264Z,15.31
2022-10-18T02:05:40.215Z,15.38
2022-10-18T02:08:53.995Z,15.42
2022-10-18T02:11:21.262Z,15.55
2022-10-18T02:14:03.507Z,15.61
2022-10-18T02:16:41.310Z,15.58
2022-10-18T02:19:20.307Z,15.45
2022-10-18T02:21:49.839Z,15.30
2022-10-18T02:24:19.062Z,15.24
2022-10-18T02:26:45.548Z,15.29
2022-10-18T02:29:13.006Z,15.40
2022-10-18T02:31:48.424Z,15.48
2022-10-18T02:34:24.241Z,15.52
2022-10-18T02:36:56.582Z,15.56
2022-10-18T02:39:30.108Z,15.53
2022-10-18T02:41:58.583Z,15.58
2022-10-18T02:44:25.403Z,15.51
2022-10-18T02:46:52.712Z,15.50
2022-10-18T02:49:19.162Z,15.52
2022-10-18T02:51:45.580Z,15.59
2022-10-18T02:54:12.067Z,15.63
2022-10-18T02:56:38.531Z,15.63
2022-10-18T02:59:07.258Z,15.49
2022-10-18T03:01:36.214Z,15.41
2022-10-18T03:04:04.145Z,15.44
2022-10-18T03:06:31.614Z,15.51
2022-10-18T03:08:58.162Z,15.50
2022-10-18T03:11:24.733Z,15.56
2022-10-18T03:13:51.300Z,15.55
2022-10-18T03:16:18.374Z,15.50
2022-10-18T03:18:44.946Z,15.45
2022-10-18T03:21:11.478Z,15.37
2022-10-18T03:23:37.990Z,15.32
2022-10-18T03:26:04.569Z,15.33
2022-10-18T03:28:31.098Z,15.39
2022-10-18T03:31:02.274Z,15.44
2022-10-18T03:33:30.879Z,15.55
2022-10-18T03:35:57.683Z,15.57
2022-10-18T03:38:24.526Z,15.59
2022-10-18T03:40:51.009Z,15.50
2022-10-18T03:43:17.602Z,15.48
2022-10-18T03:45:44.102Z,15.41
2022-10-18T03:48:10.534Z,15.27
2022-10-18T03:50:36.954Z,15.22
2022-10-18T03:53:03.490Z,15.22
2022-10-18T03:55:29.966Z,15.30
2022-10-18T03:57:56.435Z,15.41
2022-10-18T04:00:22.875Z,15.50
2022-10-18T04:02:52.072Z,15.58
2022-10-18T04:05:23.982Z,15.54
2022-10-18T04:07:50.683Z,15.54
2022-10-18T04:10:18.533Z,15.54
2022-10-18T04:12:45.054Z,15.50
2022-10-18T04:15:11.941Z,15.47
2022-10-18T04:17:38.443Z,15.44
2022-10-18T04:20:05.793Z,15.48
2022-10-18T04:22:32.255Z,15.41
2022-10-18T04:24:58.843Z,15.34
2022-10-18T04:27:25.427Z,15.34
2022-10-18T04:29:51.947Z,15.41
2022-10-18T04:32:18.406Z,15.47
2022-10-18T04:34:44.846Z,15.45
2022-10-18T04:37:11.296Z,15.44
2022-10-18T04:39:37.759Z,15.48
2022-10-18T04:42:04.229Z,15.55
2022-10-18T04:44:30.698Z,15.50
2022-10-18T04:46:57.150Z,15.40
2022-10-18T04:49:23.582Z,15.37
2022-10-18T04:51:50.003Z,15.39
2022-10-18T04:54:16.539Z,15.38
2022-10-18T04:56:42.957Z,15.44
2022-10-18T04:59:09.414Z,15.49
2022-10-18T05:01:35.892Z,15.47
2022-10-18T05:04:02.379Z,15.44
2022-10-18T05:06:28.912Z,15.42
2022-10-18T05:08:55.363Z,15.40
2022-10-18T05:11:21.823Z,15.39
2022-10-18T05:13:50.177Z,15.43
2022-10-18T05:16:17.794Z,15.40
2022-10-18T05:18:44.255Z,15.32
2022-10-18T05:21:12.312Z,15.34
2022-10-18T05:23:39.190Z,15.39
2022-10-18T05:26:07.643Z,15.37
2022-10-18T05:28:40.038Z,15.33
2022-10-18T05:31:10.600Z,15.27
2022-10-18T05:33:37.070Z,15.19
2022-10-18T05:36:04.329Z,15.14
2022-10-18T05:38:30.934Z,15.10
2022-10-18T05:40:59.170Z,15.18
2022-10-18T05:43:29.212Z,15.30
2022-10-18T05:45:55.775Z,15.37
2022-10-18T05:48:22.471Z,15.31
2022-10-18T05:50:48.937Z,15.27
2022-10-18T05:53:35.168Z,15.27
2022-10-18T05:56:03.590Z,15.16
2022-10-18T05:58:30.224Z,15.15
2022-10-18T06:01:01.890Z,15.12
2022-10-18T06:03:30.539Z,15.15
2022-10-18T06:06:08.787Z,15.12
2022-10-18T06:08:36.286Z,15.22
2022-10-18T06:11:15.177Z,15.24
2022-10-18T06:13:44.368Z,15.25
2022-10-18T06:16:12.184Z,15.18
2022-10-18T06:18:39.584Z,15.11
2022-10-18T06:21:07.100Z,15.07
2022-10-18T06:23:34.693Z,15.03
2022-10-18T06:26:05.167Z,15.02
2022-10-18T06:28:34.478Z,15.06
2022-10-18T06:31:01.133Z,15.15
2022-10-18T06:33:27.626Z,15.21
2022-10-18T06:35:59.695Z,15.16
2022-10-18T06:38:28.177Z,15.09
2022-10-18T06:40:56.138Z,14.99
2022-10-18T06:43:23.309Z,14.97
2022-10-18T06:45:50.944Z,15.04
2022-10-18T06:51:02.047Z,15.21
2022-10-18T06:53:32.403Z,15.28
2022-10-18T06:56:01.601Z,15.28
2022-10-18T06:58:29.518Z,15.29
2022-10-18T07:00:56.928Z,15.33
2022-10-18T07:03:23.735Z,15.36
2022-10-18T07:05:50.780Z,15.32
2022-10-18T07:08:18.367Z,15.24
2022-10-18T07:10:53.272Z,15.07
2022-10-18T07:13:31.972Z,15.04
2022-10-18T07:16:18.749Z,14.99
2022-10-18T07:18:51.318Z,15.10
2022-10-18T07:21:17.898Z,15.29
2022-10-18T07:23:46.297Z,15.39
2022-10-18T07:26:23.619Z,15.39
2022-10-18T07:28:55.991Z,15.46
2022-10-18T07:31:23.859Z,15.53
2022-10-18T07:33:50.991Z,15.59
2022-10-18T07:36:17.706Z,15.60
2022-10-18T07:38:44.704Z,15.55
2022-10-18T07:41:13.951Z,15.46
2022-10-18T07:43:47.187Z,15.43
2022-10-18T07:46:15.286Z,15.54
2022-10-18T07:48:42.160Z,15.57
2022-10-18T07:51:09.812Z,15.53
2022-10-18T07:53:37.175Z,15.58
2022-10-18T07:56:09.345Z,15.69
2022-10-18T07:58:36.344Z,15.77
2022-10-18T08:01:06.079Z,15.85
2022-10-18T08:03:33.919Z,15.94
2022-10-18T08:06:00.967Z,16.02
2022-10-18T08:08:28.718Z,16.08
2022-10-18T08:10:55.756Z,16.12
2022-10-18T08:13:22.308Z,16.18
2022-10-18T08:15:48.745Z,16.25
2022-10-18T08:18:15.225Z,16.22
2022-10-18T08:20:45.611Z,16.21
2022-10-18T08:23:12.526Z,16.34
2022-10-18T08:25:39.152Z,16.44
2022-10-18T08:28:06.866Z,16.47
2022-10-18T08:30:35.769Z,16.41
2022-10-18T08:33:03.417Z,16.36
2022-10-18T08:35:31.555Z,16.36
2022-10-18T08:37:58.370Z,16.44
2022-10-18T08:40:27.423Z,16.49
2022-10-18T08:43:29.319Z,16.48
2022-10-18T08:45:56.461Z,16.69
2022-10-18T08:48:36.938Z,16.76
2022-10-18T08:51:12.888Z,16.76
2022-10-18T08:54:07.414Z,16.68
2022-10-18T08:56:34.787Z,16.78
2022-10-18T08:59:04.382Z,16.77
2022-10-18T09:02:05.485Z,16.69
2022-10-18T09:05:05.359Z,16.73
2022-10-18T09:07:57.823Z,16.80
2022-10-18T09:14:10.556Z,16.82
2022-10-18T09:16:58.757Z,16.91
2022-10-18T09:20:06.555Z,16.94
2022-10-18T09:22:38.771Z,16.69
2022-10-18T09:25:26.224Z,16.99
2022-10-18T09:28:06.815Z,17.18
2022-10-18T09:31:04.851Z,17.34
2022-10-18T09:34:05.947Z,17.42
2022-10-18T09:36:38.729Z,17.48
2022-10-18T09:39:18.411Z,17.60
2022-10-18T09:41:52.527Z,17.69
2022-10-18T09:44:25.560Z,17.76
2022-10-18T09:47:06.238Z,17.51
2022-10-18T09:49:45.703Z,17.58
2022-10-18T09:52:34.526Z,17.69
2022-10-18T09:55:14.474Z,17.73
2022-10-18T09:58:07.658Z,17.76
2022-10-18T10:00:48.175Z,17.85
2022-10-18T10:03:15.721Z,17.91
2022-10-18T10:05:44.056Z,18.00
2022-10-18T10:08:11.213Z,18.01
2022-10-18T10:10:47.976Z,17.97
2022-10-18T10:13:24.648Z,17.98
2022-10-18T10:16:01.980Z,18.00
2022-10-18T10:18:38.930Z,18.06
2022-10-18T10:21:15.584Z,18.02
2022-10-18T10:23:50.397Z,18.08
2022-10-18T10:26:28.593Z,18.17
2022-10-18T10:28:55.230Z,18.25
2022-10-18T10:31:24.692Z,18.25
2022-10-18T10:34:13.896Z,18.26
2022-10-18T10:36:50.137Z,18.27
2022-10-18T10:39:19.344Z,17.88
2022-10-18T10:41:52.577Z,18.12
2022-10-18T10:44:36.309Z,18.18
2022-10-18T10:47:04.196Z,18.21
2022-10-18T10:49:46.256Z,18.14
2022-10-18T10:52:27.712Z,18.13
2022-10-18T10:55:33.731Z,18.26
2022-10-18T10:57:47.252Z,18.26
2022-10-18T11:00:53.258Z,18.27
2022-10-18T11:03:30.968Z,18.31
2022-10-18T11:06:00.640Z,18.38
2022-10-18T11:08:38.093Z,18.44
2022-10-18T11:11:39.479Z,18.34
2022-10-18T11:14:33.234Z,18.28
2022-10-18T11:17:42.217Z,18.23
2022-10-18T11:20:19.418Z,18.23
2022-10-18T11:23:19.039Z,18.23
2022-10-18T11:26:12.845Z,18.15
2022-10-18T11:29:01.950Z,18.21
2022-10-18T11:31:41.702Z,18.23
2022-10-18T11:34:46.515Z,18.22
2022-10-18T11:37:53.223Z,18.19
2022-10-18T11:41:24.901Z,18.15
2022-10-18T11:44:03.522Z,18.21
2022-10-18T11:46:49.123Z,18.09
2022-10-18T11:49:48.914Z,18.10
2022-10-18T11:52:43.263Z,18.09
2022-10-18T11:55:32.832Z,18.07
2022-10-18T11:58:36.610Z,18.18
2022-10-18T12:01:43.421Z,18.27
2022-10-18T12:04:23.250Z,18.25
2022-10-18T12:06:56.334Z,18.30
2022-10-18T12:09:41.622Z,18.35
2022-10-18T12:12:21.878Z,18.51
2022-10-18T12:14:55.472Z,18.61
2022-10-18T12:17:50.025Z,18.41
2022-10-18T12:20:45.664Z,18.44
2022-10-18T12:23:36.423Z,18.29
2022-10-18T12:26:07.828Z,18.25
2022-10-18T12:29:00.473Z,18.10
2022-10-18T12:31:59.190Z,17.95
2022-10-18T12:34:34.935Z,18.00
2022-10-18T12:37:28.672Z,17.94
2022-10-18T12:40:22.682Z,17.72
2022-10-18T12:42:52.795Z,17.69
2022-10-18T12:45:35.302Z,17.62
2022-10-18T12:48:07.612Z,17.60
2022-10-18T12:50:40.410Z,17.59
2022-10-18T12:53:20.110Z,17.59
2022-10-18T12:55:51.336Z,17.29
2022-10-18T12:58:22.321Z,17.26
2022-10-18T13:00:48.869Z,17.36
2022-10-18T13:03:16.604Z,17.37
2022-10-18T13:05:55.061Z,17.31
2022-10-18T13:08:31.554Z,17.15
2022-10-18T13:11:10.017Z,17.16
2022-10-18T13:14:16.293Z,17.36
2022-10-18T13:16:52.810Z,17.44
2022-10-18T13:19:45.085Z,17.47
2022-10-18T13:22:38.093Z,17.54
2022-10-18T13:25:34.917Z,17.46
2022-10-18T13:28:57.941Z,17.60
2022-10-18T13:31:45.680Z,17.54
2022-10-18T13:34:27.604Z,17.39
2022-10-18T13:37:01.759Z,17.68
2022-10-18T13:39:30.563Z,17.87
2022-10-18T13:41:57.682Z,17.99
2022-10-18T13:44:39.737Z,18.01
2022-10-18T13:47:06.875Z,17.95
2022-10-18T13:49:39.015Z,17.88
2022-10-18T13:52:36.415Z,17.72
2022-10-18T13:55:45.187Z,17.72
2022-10-18T13:59:05.784Z,17.38
2022-10-18T14:02:05.363Z,17.38
2022-10-18T14:05:25.812Z,17.35
2022-10-18T14:08:06.912Z,17.33
2022-10-18T14:11:03.481Z,17.38
2022-10-18T14:13:47.126Z,17.32
2022-10-18T14:16:39.048Z,17.34
2022-10-18T14:19:25.585Z,17.42
2022-10-18T14:22:19.793Z,17.43
2022-10-18T14:24:54.073Z,17.25
2022-10-18T14:27:23.007Z,17.22
2022-10-18T14:30:06.331Z,17.25
2022-10-18T14:32:33.340Z,17.17
2022-10-18T14:35:31.497Z,17.12
2022-10-18T14:37:50.668Z,17.14
2022-10-18T14:40:39.097Z,17.23
2022-10-18T14:43:19.714Z,17.14
2022-10-18T14:45:46.248Z,17.13
2022-10-18T14:48:30.815Z,17.12
2022-10-18T14:51:00.332Z,17.24
2022-10-18T14:53:38.868Z,17.21
2022-10-18T14:56:08.165Z,17.13
2022-10-18T14:58:38.172Z,17.06
2022-10-18T15:01:05.272Z,17.12
2022-10-18T15:03:35.702Z,17.08
2022-10-18T15:06:05.719Z,17.01
2022-10-18T15:08:43.511Z,16.93
2022-10-18T15:11:14.776Z,16.99
2022-10-18T15:14:08.633Z,16.88
2022-10-18T15:16:38.594Z,16.83
2022-10-18T15:19:15.570Z,16.81
2022-10-18T15:22:31.399Z,16.69
2022-10-18T15:25:16.554Z,16.54
2022-10-18T15:27:58.268Z,16.49
2022-10-18T15:30:29.922Z,16.66
2022-10-18T15:33:01.003Z,16.82
2022-10-18T15:35:31.596Z,16.89
2022-10-18T15:38:32.620Z,16.81
2022-10-18T15:40:59.185Z,16.73
2022-10-18T15:43:25.615Z,16.76
2022-10-18T15:46:00.253Z,16.72
2022-10-18T15:48:40.410Z,16.73
2022-10-18T15:51:48.200Z,16.81
2022-10-18T15:54:19.027Z,16.42
2022-10-18T15:56:46.000Z,16.58
2022-10-18T15:59:26.059Z,16.66
2022-10-18T16:01:52.804Z,16.70
2022-10-18T16:04:32.553Z,16.55
2022-10-18T16:07:00.499Z,16.51
2022-10-18T16:09:28.903Z,16.50
2022-10-18T16:11:57.276Z,16.58
2022-10-18T16:14:26.057Z,16.62
2022-10-18T16:17:00.541Z,16.56
2022-10-18T16:19:27.138Z,16.58
2022-10-18T16:21:54.753Z,16.59
2022-10-18T16:24:22.792Z,16.57
2022-10-18T16:26:50.026Z,16.55
2022-10-18T16:29:25.432Z,16.55
2022-10-18T16:31:53.642Z,16.59
2022-10-18T16:34:20.160Z,16.55
2022-10-18T16:36:46.625Z,16.46
2022-10-18T16:39:17.514Z,16.44
2022-10-18T16:41:45.379Z,16.41
2022-10-18T16:44:12.478Z,16.32
2022-10-18T16:46:41.100Z,16.29
2022-10-18T16:51:46.533Z,16.04
2022-10-18T16:54:12.996Z,16.06
2022-10-18T16:56:40.168Z,15.99
2022-10-18T16:59:07.210Z,15.85
2022-10-18T17:01:33.734Z,15.82
2022-10-18T17:04:00.247Z,15.72
2022-10-18T17:06:32.528Z,15.65
2022-10-18T17:08:59.534Z,15.55
2022-10-18T17:11:28.268Z,15.35
2022-10-18T17:13:55.486Z,15.13
2022-10-18T17:16:30.769Z,14.94
2022-10-18T17:19:00.328Z,14.83
2022-10-18T17:21:28.255Z,14.68
2022-10-18T17:23:55.399Z,14.53
2022-10-18T17:26:29.482Z,14.41
2022-10-18T17:29:01.135Z,14.29
2022-10-18T17:31:30.196Z,14.27
2022-10-18T17:33:58.533Z,14.08
2022-10-18T17:36:25.724Z,13.96
2022-10-18T17:38:54.396Z,13.82
2022-10-18T17:41:21.558Z,13.78
2022-10-18T17:43:48.815Z,13.82
2022-10-18T17:46:16.171Z,13.85
2022-10-18T17:48:42.739Z,13.67
2022-10-18T17:51:12.503Z,13.52
2022-10-18T17:53:39.587Z,13.49
2022-10-18T17:56:07.633Z,13.34
2022-10-18T17:58:34.948Z,13.20
2022-10-18T18:01:18.904Z,13.05
2022-10-18T18:03:47.498Z,13.18
2022-10-18T18:06:30.744Z,13.30
2022-10-18T18:08:58.866Z,13.36
2022-10-18T18:11:25.458Z,13.30
2022-10-18T18:13:51.935Z,13.17
2022-10-18T18:16:23.538Z,12.96
2022-10-18T18:18:53.528Z,12.83
2022-10-18T18:21:21.311Z,12.72
2022-10-18T18:23:49.118Z,12.62
2022-10-18T18:26:16.495Z,12.48
2022-10-18T18:28:43.100Z,12.44
2022-10-18T18:31:14.639Z,12.31
2022-10-18T18:33:42.357Z,12.25
2022-10-18T18:36:09.782Z,12.23
2022-10-18T18:38:39.836Z,12.19
2022-10-18T18:41:12.580Z,12.12
2022-10-18T18:43:42.610Z,12.02
2022-10-18T18:46:10.908Z,12.05
2022-10-18T18:48:37.448Z,12.01
2022-10-18T18:51:05.903Z,11.94
2022-10-18T18:53:32.639Z,11.89
2022-10-18T18:56:05.315Z,11.86
2022-10-18T18:58:35.085Z,11.83
2022-10-18T19:01:14.843Z,11.82
2022-10-18T19:03:42.763Z,11.87
2022-10-18T19:06:15.826Z,11.76
2022-10-18T19:08:44.760Z,11.90
2022-10-18T19:11:16.594Z,11.92
2022-10-18T19:13:43.697Z,11.85
2022-10-18T19:16:24.751Z,11.66
2022-10-18T19:19:07.544Z,11.59
2022-10-18T19:21:37.885Z,11.63
2022-10-18T19:24:06.069Z,11.73
2022-10-18T19:26:38.525Z,11.75
2022-10-18T19:29:29.227Z,11.74
2022-10-18T19:32:00.001Z,11.66
2022-10-18T19:34:28.964Z,11.68
2022-10-18T19:36:56.651Z,11.60
2022-10-18T19:39:35.217Z,11.37
2022-10-18T19:42:05.927Z,11.27
2022-10-18T19:44:35.933Z,11.08
2022-10-18T19:47:06.160Z,11.05
2022-10-18T19:49:33.103Z,11.07
2022-10-18T19:51:59.759Z,11.05
2022-10-18T19:54:26.824Z,10.93
2022-10-18T19:56:53.439Z,10.91
2022-10-18T19:59:21.143Z,10.92
2022-10-18T20:01:47.691Z,11.02
2022-10-18T20:04:16.132Z,11.10
2022-10-18T20:06:43.648Z,11.02
2022-10-18T20:09:16.079Z,10.93
2022-10-18T20:11:45.942Z,10.73
2022-10-18T20:14:12.408Z,10.66
2022-10-18T20:16:38.845Z,10.63
2022-10-18T20:19:08.059Z,10.53
2022-10-18T20:21:36.236Z,10.44
2022-10-18T20:24:06.416Z,10.22
2022-10-18T20:26:34.473Z,10.13
2022-10-18T20:29:01.113Z,10.06
2022-10-18T20:31:31.112Z,10.02
2022-10-18T20:34:01.946Z,9.96
2022-10-18T20:36:31.003Z,9.90
2022-10-18T20:38:58.406Z,9.86
2022-10-18T20:41:29.103Z,9.79
2022-10-18T20:44:02.703Z,9.74
2022-10-18T20:46:35.441Z,9.66
2022-10-18T20:49:03.709Z,9.67
2022-10-18T20:51:30.726Z,9.66
2022-10-18T20:53:57.560Z,9.64
2022-10-18T20:56:27.099Z,9.55
2022-10-18T20:58:56.928Z,9.57
2022-10-18T21:01:30.478Z,9.75
2022-10-18T21:04:01.333Z,9.80
2022-10-18T21:06:31.099Z,9.66
2022-10-18T21:09:03.091Z,9.56
2022-10-18T21:11:33.935Z,9.47
2022-10-18T21:14:05.199Z,9.37
2022-10-18T21:16:35.038Z,9.36
2022-10-18T21:19:13.868Z,9.34
2022-10-18T21:21:43.839Z,9.40
2022-10-18T21:24:12.105Z,9.46
2022-10-18T21:26:39.167Z,9.46
2022-10-18T21:29:06.418Z,9.27
2022-10-18T21:31:36.289Z,9.18
2022-10-18T21:34:09.769Z,9.01
2022-10-18T21:36:37.635Z,9.00
2022-10-18T21:39:08.017Z,9.12
2022-10-18T21:41:34.962Z,9.23
2022-10-18T21:44:05.586Z,9.18
2022-10-18T21:46:35.324Z,9.12
2022-10-18T21:49:01.765Z,8.99
2022-10-18T21:51:28.542Z,9.00
2022-10-18T21:53:57.855Z,8.82
2022-10-18T21:56:31.254Z,8.57
2022-10-18T21:58:58.739Z,8.56
2022-10-18T22:01:34.810Z,8.46
2022-10-18T22:04:04.207Z,8.59
2022-10-18T22:09:07.083Z,8.56
2022-10-18T22:11:42.847Z,8.62
2022-10-18T22:14:10.330Z,8.82
2022-10-18T22:16:36.882Z,9.00
2022-10-18T22:19:05.919Z,9.06
2022-10-18T22:21:32.530Z,9.12
2022-10-18T22:24:00.270Z,9.05
2022-10-18T22:26:34.202Z,8.82
2022-10-18T22:29:16.875Z,8.75
2022-10-18T22:31:51.007Z,8.66
2022-10-18T22:34:27.340Z,8.73
2022-10-18T22:36:54.405Z,8.77
2022-10-18T22:39:21.282Z,8.71
2022-10-18T22:41:51.942Z,8.73
2022-10-18T22:44:18.369Z,8.72
2022-10-18T22:46:44.840Z,8.50
2022-10-18T22:49:11.978Z,8.50
2022-10-18T22:51:38.641Z,8.40
2022-10-18T22:54:05.239Z,8.21
2022-10-18T22:56:31.695Z,8.15
2022-10-18T22:58:58.147Z,8.17
2022-10-18T23:01:24.721Z,8.06
2022-10-18T23:03:56.517Z,7.95
2022-10-18T23:06:29.481Z,7.86
2022-10-18T23:08:58.446Z,7.99
2022-10-18T23:11:27.520Z,8.07
2022-10-18T23:13:54.731Z,8.06
2022-10-18T23:16:21.810Z,7.99
2022-10-18T23:18:57.079Z,7.96
2022-10-18T23:21:26.920Z,7.98
2022-10-18T23:23:54.959Z,7.99
2022-10-18T23:26:25.992Z,7.77
2022-10-18T23:28:54.184Z,7.77
2022-10-18T23:31:32.836Z,7.54
2022-10-18T23:34:05.204Z,7.39
2022-10-18T23:36:34.358Z,7.38
2022-10-18T23:39:02.771Z,7.30
2022-10-18T23:41:29.990Z,7.26
2022-10-18T23:43:56.506Z,7.22
2022-10-18T23:46:23.211Z,7.26
2022-10-18T23:48:49.995Z,7.20
2022-10-18T23:51:17.774Z,7.15
2022-10-18T23:53:44.297Z,7.22
2022-10-18T23:56:15.491Z,7.36
2022-10-18T23:58:43.809Z,7.33
